Terminal Aerodrome Forecast
Issued by NWS

Current Version | Previous Version | Graphics & Text | Print | Product List | Glossary On
Versions: 1 2 3 4 5 6 7 8 9 10 11 12 13 14 15 16 17 18 19 20 21 22
000
FTUS41 KRLX 221120
TAFCKB
TAF
KCKB 221120Z 2212/2312 35014G24KT P6SM SCT045
      TEMPO 2212/2213 BKN030
     FM221600 34010G18KT P6SM FEW200
     FM222100 36005KT P6SM FEW250=

USA.gov is the U.S. government's official web portal to all federal, state and local government web resources and services.